createdAt,value
2018-12-16T00:00:19.609Z,-5.10
2018-12-16T00:02:48.448Z,-5.10
2018-12-16T00:05:21.925Z,-5.10
2018-12-16T00:07:53.776Z,-5.10
2018-12-16T00:10:25.652Z,-5.10
2018-12-16T00:12:55.465Z,-5.10
2018-12-16T00:15:25.380Z,-5.10
2018-12-16T00:18:02.544Z,-5.00
2018-12-16T00:20:39.368Z,-5.10
2018-12-16T00:23:17.944Z,-5.10
2018-12-16T00:25:49.972Z,-5.20
2018-12-16T00:28:19.767Z,-5.20
2018-12-16T00:30:49.548Z,-5.20
2018-12-16T00:33:20.257Z,-5.20
2018-12-16T00:35:50.104Z,-5.20
2018-12-16T00:38:30.352Z,-5.10
2018-12-16T00:41:06.192Z,-5.10
2018-12-16T00:43:36.896Z,-5.10
2018-12-16T00:46:05.760Z,-5.20
2018-12-16T00:48:34.549Z,-5.20
2018-12-16T00:51:03.505Z,-5.30
2018-12-16T00:53:32.301Z,-5.30
2018-12-16T00:56:06.045Z,-5.40
2018-12-16T00:58:35.788Z,-5.40
2018-12-16T01:01:13.124Z,-5.50
2018-12-16T01:04:07.696Z,-5.50
2018-12-16T01:06:38.624Z,-5.50
2018-12-16T01:09:08.490Z,-5.60
2018-12-16T01:11:38.240Z,-5.60
2018-12-16T01:14:07.044Z,-5.60
2018-12-16T01:16:37.865Z,-5.60
2018-12-16T01:19:08.800Z,-5.70
2018-12-16T01:21:38.492Z,-5.70
2018-12-16T01:24:18.435Z,-5.60
2018-12-16T01:26:50.952Z,-5.70
2018-12-16T01:29:23.325Z,-5.60
2018-12-16T01:31:57.973Z,-5.60
2018-12-16T01:34:29.841Z,-5.60
2018-12-16T01:37:05.480Z,-5.50
2018-12-16T01:39:46.740Z,-5.40
2018-12-16T01:42:35.188Z,-5.40
2018-12-16T01:45:09.881Z,-5.30
2018-12-16T01:47:39.688Z,-5.20
2018-12-16T01:50:08.592Z,-5.20
2018-12-16T01:52:39.321Z,-5.20
2018-12-16T01:55:18.556Z,-5.20
2018-12-16T01:57:49.428Z,-5.10
2018-12-16T02:00:19.913Z,-5.10
2018-12-16T02:02:48.744Z,-5.10
2018-12-16T02:05:18.530Z,-5.10
2018-12-16T02:07:47.444Z,-5.10
2018-12-16T02:10:16.279Z,-5.00
2018-12-16T02:12:52.171Z,-5.00
2018-12-16T02:15:21.906Z,-4.90
2018-12-16T02:17:52.636Z,-4.90
2018-12-16T02:20:22.402Z,-4.90
2018-12-16T02:22:56.801Z,-4.90
2018-12-16T02:25:23.925Z,-4.90
2018-12-16T02:27:52.696Z,-4.90
2018-12-16T02:30:28.557Z,-4.90
2018-12-16T02:32:57.396Z,-4.90
2018-12-16T02:35:27.134Z,-4.80
2018-12-16T02:38:08.833Z,-4.70
2018-12-16T02:40:37.678Z,-4.70
2018-12-16T02:43:14.332Z,-4.80
2018-12-16T02:45:47.441Z,-4.80
2018-12-16T02:48:36.613Z,-4.90
2018-12-16T02:51:05.538Z,-4.80
2018-12-16T02:53:37.575Z,-4.80
2018-12-16T02:56:09.438Z,-4.70
2018-12-16T02:58:38.282Z,-4.60
2018-12-16T03:01:09.084Z,-4.50
2018-12-16T03:03:38.765Z,-4.50
2018-12-16T03:06:26.237Z,-4.40
2018-12-16T03:09:02.206Z,-4.40
2018-12-16T03:11:32.977Z,-4.40
2018-12-16T03:14:06.981Z,-4.40
2018-12-16T03:16:37.626Z,-4.40
2018-12-16T03:19:11.305Z,-4.40
2018-12-16T03:21:41.045Z,-4.40
2018-12-16T03:24:09.834Z,-4.50
2018-12-16T03:26:38.621Z,-4.50
2018-12-16T03:29:08.416Z,-4.50
2018-12-16T03:31:39.134Z,-4.50
2018-12-16T03:34:08.009Z,-4.40
2018-12-16T03:36:36.869Z,-4.40
2018-12-16T03:39:07.677Z,-4.40
2018-12-16T03:41:37.461Z,-4.40
2018-12-16T03:44:11.485Z,-4.40
2018-12-16T03:46:40.340Z,-4.40
2018-12-16T03:49:10.069Z,-4.40
2018-12-16T03:51:38.917Z,-4.40
2018-12-16T03:54:08.666Z,-4.40
2018-12-16T03:56:41.357Z,-4.40
2018-12-16T03:59:17.365Z,-4.40
2018-12-16T04:01:48.187Z,-4.40
2018-12-16T04:04:22.616Z,-4.30
2018-12-16T04:06:55.234Z,-4.30
2018-12-16T04:09:31.826Z,-4.30
2018-12-16T04:12:01.513Z,-4.30
2018-12-16T04:14:37.256Z,-4.30
2018-12-16T04:17:06.105Z,-4.30
2018-12-16T04:19:34.949Z,-4.30
2018-12-16T04:22:03.737Z,-4.40
2018-12-16T04:24:34.586Z,-4.40
2018-12-16T04:27:04.422Z,-4.40
2018-12-16T04:29:38.462Z,-4.40
2018-12-16T04:32:10.265Z,-4.40
2018-12-16T04:34:46.715Z,-4.40
2018-12-16T04:37:15.561Z,-4.40
2018-12-16T04:39:46.330Z,-4.50
2018-12-16T04:42:36.326Z,-4.50
2018-12-16T04:45:09.093Z,-4.50
2018-12-16T04:47:37.935Z,-4.40
2018-12-16T04:50:12.413Z,-4.40
2018-12-16T04:52:45.125Z,-4.40
2018-12-16T04:55:13.921Z,-4.40
2018-12-16T04:57:51.395Z,-4.30
2018-12-16T05:00:36.812Z,-4.30
2018-12-16T05:03:07.582Z,-4.40
2018-12-16T05:05:37.469Z,-4.40
2018-12-16T05:08:06.555Z,-4.30
2018-12-16T05:10:37.337Z,-4.30
2018-12-16T05:13:08.093Z,-4.20
2018-12-16T05:16:00.593Z,-4.30
2018-12-16T05:18:30.329Z,-4.30
2018-12-16T05:21:03.742Z,-4.30
2018-12-16T05:23:33.525Z,-4.20
2018-12-16T05:26:04.269Z,-4.20
2018-12-16T05:28:33.137Z,-4.10
2018-12-16T05:31:01.949Z,-4.10
2018-12-16T05:33:31.693Z,-4.00
2018-12-16T05:36:00.536Z,-4.00
2018-12-16T05:38:36.713Z,-4.00
2018-12-16T05:41:05.553Z,-3.90
2018-12-16T05:43:37.661Z,-3.80
2018-12-16T05:46:08.373Z,-3.80
2018-12-16T05:48:38.133Z,-3.80
2018-12-16T05:51:07.296Z,-3.70
2018-12-16T05:53:36.989Z,-3.70
2018-12-16T05:56:05.821Z,-3.70
2018-12-16T05:58:38.148Z,-3.70
2018-12-16T06:01:35.541Z,-3.70
2018-12-16T06:04:10.408Z,-3.70
2018-12-16T06:06:42.409Z,-3.60
2018-12-16T06:09:23.804Z,-3.60
2018-12-16T06:11:52.614Z,-3.60
2018-12-16T06:14:22.385Z,-3.60
2018-12-16T06:16:57.677Z,-3.60
2018-12-16T06:19:36.997Z,-3.50
2018-12-16T06:22:34.145Z,-3.50
2018-12-16T06:25:05.074Z,-3.50
2018-12-16T06:27:35.780Z,-3.50
2018-12-16T06:30:05.941Z,-3.50
2018-12-16T06:32:34.806Z,-3.50
2018-12-16T06:35:03.755Z,-3.50
2018-12-16T06:37:36.781Z,-3.40
2018-12-16T06:40:11.485Z,-3.40
2018-12-16T06:42:40.309Z,-3.40
2018-12-16T06:45:10.048Z,-3.40
2018-12-16T06:47:40.749Z,-3.40
2018-12-16T06:50:13.571Z,-3.40
2018-12-16T06:53:09.948Z,-3.40
2018-12-16T06:55:52.028Z,-3.30
2018-12-16T06:58:27.556Z,-3.40
2018-12-16T07:00:56.396Z,-3.30
2018-12-16T07:03:31.444Z,-3.30
2018-12-16T07:06:05.214Z,-3.40
2018-12-16T07:08:34.016Z,-3.40
2018-12-16T07:11:05.990Z,-3.40
2018-12-16T07:13:36.680Z,-3.40
2018-12-16T07:16:26.448Z,-3.40
2018-12-16T07:18:55.232Z,-3.40
2018-12-16T07:21:35.595Z,-3.40
2018-12-16T07:24:09.327Z,-3.40
2018-12-16T07:26:49.048Z,-3.40
2018-12-16T07:29:18.780Z,-3.40
2018-12-16T07:32:00.015Z,-3.40
2018-12-16T07:34:30.771Z,-3.40
2018-12-16T07:36:59.575Z,-3.40
2018-12-16T07:39:33.683Z,-3.40
2018-12-16T07:42:03.553Z,-3.40
2018-12-16T07:44:32.488Z,-3.30
2018-12-16T07:47:06.120Z,-3.20
2018-12-16T07:49:34.930Z,-3.20
2018-12-16T07:52:03.769Z,-3.20
2018-12-16T07:54:33.532Z,-3.20
2018-12-16T07:57:02.355Z,-3.10
2018-12-16T07:59:35.168Z,-3.10
2018-12-16T08:02:08.832Z,-3.10
2018-12-16T08:04:37.677Z,-3.10
2018-12-16T08:07:07.400Z,-3.10
2018-12-16T08:09:36.207Z,-3.10
2018-12-16T08:12:05.042Z,-3.10
2018-12-16T08:14:34.785Z,-3.00
2018-12-16T08:17:03.664Z,-3.00
2018-12-16T08:19:34.456Z,-3.00
2018-12-16T08:22:11.620Z,-3.00
2018-12-16T08:24:44.700Z,-3.00
2018-12-16T08:27:14.468Z,-3.00
2018-12-16T08:29:44.273Z,-3.00
2018-12-16T08:32:27.552Z,-3.00
2018-12-16T08:35:03.896Z,-2.90
2018-12-16T08:37:36.332Z,-2.90
2018-12-16T08:40:05.941Z,-2.80
2018-12-16T08:42:36.757Z,-2.80
2018-12-16T08:45:06.966Z,-2.80
2018-12-16T08:47:35.829Z,-2.70
2018-12-16T08:50:11.530Z,-2.70
2018-12-16T08:52:40.344Z,-2.80
2018-12-16T08:55:10.068Z,-2.80
2018-12-16T08:57:43.949Z,-2.80
2018-12-16T09:00:14.701Z,-2.90
2018-12-16T09:02:43.499Z,-2.90
2018-12-16T09:05:20.953Z,-2.90
2018-12-16T09:07:49.777Z,-2.80
2018-12-16T09:10:20.529Z,-2.80
2018-12-16T09:12:49.325Z,-2.80
2018-12-16T09:15:28.861Z,-2.80
2018-12-16T09:17:59.632Z,-2.80
2018-12-16T09:20:28.513Z,-2.80
2018-12-16T09:22:59.341Z,-2.70
2018-12-16T09:25:33.329Z,-2.70
2018-12-16T09:28:04.079Z,-2.70
2018-12-16T09:30:32.942Z,-2.70
2018-12-16T09:33:02.397Z,-2.60
2018-12-16T09:35:36.101Z,-2.60
2018-12-16T09:38:06.066Z,-2.60
2018-12-16T09:40:35.921Z,-2.60
2018-12-16T09:43:09.405Z,-2.50
2018-12-16T09:45:39.229Z,-2.50
2018-12-16T09:48:09.021Z,-2.50
2018-12-16T09:50:42.717Z,-2.40
2018-12-16T09:53:11.497Z,-2.40
2018-12-16T09:55:42.293Z,-2.30
2018-12-16T09:58:14.613Z,-2.30
2018-12-16T10:01:01.713Z,-2.30
2018-12-16T10:03:32.597Z,-2.30
2018-12-16T10:06:01.459Z,-2.30
2018-12-16T10:08:31.293Z,-2.20
2018-12-16T10:11:00.181Z,-2.10
2018-12-16T10:13:29.882Z,-2.00
2018-12-16T10:16:01.487Z,-2.10
2018-12-16T10:18:32.253Z,-2.10
2018-12-16T10:21:04.905Z,-2.10
2018-12-16T10:23:35.638Z,-2.10
2018-12-16T10:26:11.817Z,-1.90
2018-12-16T10:28:41.545Z,-1.80
2018-12-16T10:31:10.389Z,-1.80
2018-12-16T10:33:39.229Z,-1.90
2018-12-16T10:36:08.957Z,-1.90
2018-12-16T10:38:38.757Z,-1.90
2018-12-16T10:41:09.501Z,-1.90
2018-12-16T10:43:40.249Z,-2.00
2018-12-16T10:46:10.061Z,-2.00
2018-12-16T10:48:45.327Z,-2.10
2018-12-16T10:51:14.989Z,-2.20
2018-12-16T10:53:43.781Z,-2.30
2018-12-16T10:56:12.574Z,-2.20
2018-12-16T10:58:41.401Z,-2.20
2018-12-16T11:01:18.729Z,-2.10
2018-12-16T11:04:12.302Z,-2.20
2018-12-16T11:06:41.182Z,-2.20
2018-12-16T11:09:10.925Z,-2.20
2018-12-16T11:11:39.907Z,-2.10
2018-12-16T11:14:16.839Z,-2.00
2018-12-16T11:16:57.858Z,-1.90
2018-12-16T11:19:27.542Z,-1.80
2018-12-16T11:22:00.147Z,-1.80
2018-12-16T11:24:30.164Z,-1.80
2018-12-16T11:27:12.746Z,-1.80
2018-12-16T11:29:42.450Z,-1.70
2018-12-16T11:32:11.300Z,-1.80
2018-12-16T11:34:45.215Z,-1.80
2018-12-16T11:37:19.842Z,-2.00
2018-12-16T11:39:50.705Z,-2.00
2018-12-16T11:42:19.522Z,-2.10
2018-12-16T11:44:56.786Z,-1.90
2018-12-16T11:47:29.666Z,-1.80
2018-12-16T11:50:00.058Z,-1.90
2018-12-16T11:52:32.897Z,-1.90
2018-12-16T11:55:02.765Z,-1.90
2018-12-16T11:57:35.402Z,-1.90
2018-12-16T12:00:07.534Z,-2.00
2018-12-16T12:02:40.186Z,-1.90
2018-12-16T12:05:35.140Z,-1.90
2018-12-16T12:08:04.070Z,-2.00
2018-12-16T12:10:33.817Z,-2.00
2018-12-16T12:13:02.643Z,-2.00
2018-12-16T12:15:36.509Z,-2.00
2018-12-16T12:18:06.262Z,-2.00
2018-12-16T12:20:35.096Z,-2.00
2018-12-16T12:23:05.907Z,-2.00
2018-12-16T12:25:34.727Z,-2.00
2018-12-16T12:28:09.219Z,-2.10
2018-12-16T12:30:41.262Z,-2.10
2018-12-16T12:33:10.051Z,-2.00
2018-12-16T12:35:39.818Z,-2.00
2018-12-16T12:38:08.694Z,-1.90
2018-12-16T12:40:42.647Z,-1.80
2018-12-16T12:43:11.475Z,-1.60
2018-12-16T12:45:43.886Z,-1.50
2018-12-16T12:48:23.474Z,-1.50
2018-12-16T12:50:52.371Z,-1.40
2018-12-16T12:53:24.375Z,-1.30
2018-12-16T12:55:53.210Z,-1.30
2018-12-16T12:58:23.007Z,-1.30
2018-12-16T13:00:53.891Z,-1.40
2018-12-16T13:03:28.359Z,-1.50
2018-12-16T13:06:05.052Z,-1.70
2018-12-16T13:08:35.825Z,-1.70
2018-12-16T13:11:04.719Z,-1.70
2018-12-16T13:13:35.423Z,-1.90
2018-12-16T13:16:09.695Z,-1.90
2018-12-16T13:18:44.319Z,-1.90
2018-12-16T13:21:15.055Z,-1.90
2018-12-16T13:23:49.923Z,-1.80
2018-12-16T13:26:20.907Z,-1.90
2018-12-16T13:28:49.751Z,-1.90
2018-12-16T13:31:18.559Z,-1.90
2018-12-16T13:33:48.855Z,-1.90
2018-12-16T13:36:22.615Z,-1.90
2018-12-16T13:38:55.639Z,-1.80
2018-12-16T13:41:24.539Z,-1.80
2018-12-16T13:43:55.188Z,-1.70
2018-12-16T13:46:28.391Z,-1.70
2018-12-16T13:49:02.834Z,-1.70
2018-12-16T13:51:35.699Z,-1.60
2018-12-16T13:54:04.507Z,-1.60
2018-12-16T13:56:35.355Z,-1.60
2018-12-16T13:59:07.983Z,-1.60
2018-12-16T14:01:36.730Z,-1.50
2018-12-16T14:04:31.472Z,-1.60
2018-12-16T14:07:04.291Z,-1.60
2018-12-16T14:09:34.991Z,-1.60
2018-12-16T14:12:12.375Z,-1.60
2018-12-16T14:14:43.127Z,-1.60
2018-12-16T14:17:15.287Z,-1.60
2018-12-16T14:19:49.919Z,-1.60
2018-12-16T14:22:22.643Z,-1.60
2018-12-16T14:24:52.368Z,-1.60
2018-12-16T14:27:26.967Z,-1.60
2018-12-16T14:30:08.667Z,-1.60
2018-12-16T14:32:41.011Z,-1.60
2018-12-16T14:35:18.679Z,-1.60
2018-12-16T14:37:59.335Z,-1.50
2018-12-16T14:40:28.215Z,-1.60
2018-12-16T14:42:57.010Z,-1.60
2018-12-16T14:45:26.735Z,-1.60
2018-12-16T14:48:01.395Z,-1.60
2018-12-16T14:50:31.203Z,-1.60
2018-12-16T14:53:00.974Z,-1.70
2018-12-16T14:55:32.844Z,-1.70
2018-12-16T14:58:18.888Z,-1.70
2018-12-16T15:00:49.702Z,-1.70
2018-12-16T15:03:20.498Z,-1.70
2018-12-16T15:05:49.361Z,-1.70
2018-12-16T15:08:18.178Z,-1.70
2018-12-16T15:10:48.871Z,-1.70
2018-12-16T15:13:17.675Z,-1.80
2018-12-16T15:15:52.966Z,-1.70
2018-12-16T15:18:21.786Z,-1.70
2018-12-16T15:20:54.006Z,-1.70
2018-12-16T15:23:24.714Z,-1.70
2018-12-16T15:25:53.535Z,-1.70
2018-12-16T15:28:22.375Z,-1.70
2018-12-16T15:30:54.903Z,-1.70
2018-12-16T15:33:23.691Z,-1.70
2018-12-16T15:35:53.486Z,-1.70
2018-12-16T15:38:22.328Z,-1.70
2018-12-16T15:41:03.612Z,-1.60
2018-12-16T15:43:33.362Z,-1.60
2018-12-16T15:46:02.227Z,-1.60
2018-12-16T15:48:34.435Z,-1.60
2018-12-16T15:51:09.090Z,-1.60
2018-12-16T15:53:45.914Z,-1.50
2018-12-16T15:56:14.764Z,-1.50
2018-12-16T15:59:01.943Z,-1.50
2018-12-16T16:01:34.272Z,-1.50
2018-12-16T16:04:04.030Z,-1.40
2018-12-16T16:06:34.718Z,-1.40
2018-12-16T16:09:08.291Z,-1.50
2018-12-16T16:11:48.764Z,-1.50
2018-12-16T16:14:17.594Z,-1.50
2018-12-16T16:16:49.599Z,-1.50
2018-12-16T16:19:19.310Z,-1.50
2018-12-16T16:21:49.111Z,-1.50
2018-12-16T16:24:17.959Z,-1.50
2018-12-16T16:26:52.302Z,-1.50
2018-12-16T16:29:26.995Z,-1.50
2018-12-16T16:31:59.255Z,-1.50
2018-12-16T16:34:31.634Z,-1.60
2018-12-16T16:37:00.538Z,-1.60
2018-12-16T16:39:30.243Z,-1.60
2018-12-16T16:41:59.950Z,-1.60
2018-12-16T16:44:28.863Z,-1.60
2018-12-16T16:47:16.779Z,-1.50
2018-12-16T16:49:45.679Z,-1.60
2018-12-16T16:52:16.403Z,-1.60
2018-12-16T16:54:50.306Z,-1.60
2018-12-16T16:57:31.636Z,-1.70
2018-12-16T17:00:00.504Z,-1.60
2018-12-16T17:02:31.366Z,-1.60
2018-12-16T17:05:00.183Z,-1.60
2018-12-16T17:07:29.015Z,-1.60
2018-12-16T17:10:18.663Z,-1.70
2018-12-16T17:12:49.415Z,-1.60
2018-12-16T17:15:18.247Z,-1.60
2018-12-16T17:18:19.247Z,-1.60
2018-12-16T17:20:48.075Z,-1.50
2018-12-16T17:23:27.035Z,-1.50
2018-12-16T17:26:14.443Z,-1.50
2018-12-16T17:28:44.291Z,-1.50
2018-12-16T17:31:33.470Z,-1.40
2018-12-16T17:34:02.339Z,-1.50
2018-12-16T17:36:34.043Z,-1.50
2018-12-16T17:39:06.798Z,-1.40
2018-12-16T17:41:36.583Z,-1.50
2018-12-16T17:44:07.370Z,-1.40
2018-12-16T17:46:39.549Z,-1.40
2018-12-16T17:49:13.326Z,-1.40
2018-12-16T17:51:42.207Z,-1.40
2018-12-16T17:54:22.655Z,-1.40
2018-12-16T17:56:56.171Z,-1.30
2018-12-16T17:59:29.341Z,-1.30
2018-12-16T18:02:00.251Z,-1.30
2018-12-16T18:04:31.120Z,-1.30
2018-12-16T18:07:03.371Z,-1.20
2018-12-16T18:09:33.082Z,-1.30
2018-12-16T18:12:02.011Z,-1.20
2018-12-16T18:14:31.691Z,-1.20
2018-12-16T18:17:02.948Z,-1.20
2018-12-16T18:19:33.795Z,-1.20
2018-12-16T18:22:13.871Z,-1.20
2018-12-16T18:24:43.115Z,-1.20
2018-12-16T18:27:14.896Z,-1.20
2018-12-16T18:29:43.686Z,-1.20
2018-12-16T18:32:17.622Z,-1.20
2018-12-16T18:34:49.892Z,-1.20
2018-12-16T18:37:23.865Z,-1.10
2018-12-16T18:39:55.643Z,-1.10
2018-12-16T18:42:32.891Z,-1.10
2018-12-16T18:45:01.727Z,-1.10
2018-12-16T18:47:33.595Z,-1.10
2018-12-16T18:50:09.335Z,-1.00
2018-12-16T18:52:39.063Z,-1.00
2018-12-16T18:55:15.480Z,-1.00
2018-12-16T18:57:45.295Z,-1.00
2018-12-16T19:00:16.894Z,-0.90
2018-12-16T19:02:55.659Z,-0.90
2018-12-16T19:05:28.444Z,-0.90
2018-12-16T19:08:03.894Z,-0.90
2018-12-16T19:10:33.572Z,-0.80
2018-12-16T19:13:02.427Z,-0.80
2018-12-16T19:15:37.882Z,-0.80
2018-12-16T19:18:12.651Z,-0.80
2018-12-16T19:20:51.255Z,-0.80
2018-12-16T19:23:20.071Z,-0.80
2018-12-16T19:25:48.943Z,-0.80
2018-12-16T19:28:22.291Z,-0.80
2018-12-16T19:30:52.117Z,-0.70
2018-12-16T19:33:21.019Z,-0.70
2018-12-16T19:35:52.916Z,-0.70
2018-12-16T19:38:23.743Z,-0.70
2018-12-16T19:41:05.023Z,-0.70
2018-12-16T19:43:36.895Z,-0.70
2018-12-16T19:46:10.587Z,-0.60
2018-12-16T19:48:41.351Z,-0.60
2018-12-16T19:51:15.936Z,-0.50
2018-12-16T19:53:49.658Z,-0.50
2018-12-16T19:56:18.554Z,-0.50
2018-12-16T19:58:53.170Z,-0.50
2018-12-16T20:01:27.800Z,-0.50
2018-12-16T20:04:03.274Z,-0.50
2018-12-16T20:06:37.511Z,-0.40
2018-12-16T20:09:12.191Z,-0.40
2018-12-16T20:11:45.644Z,-0.40
2018-12-16T20:14:15.414Z,-0.40
2018-12-16T20:16:44.302Z,-0.30
2018-12-16T20:19:13.079Z,-0.30
2018-12-16T20:21:41.875Z,-0.30
2018-12-16T20:24:10.670Z,-0.20
2018-12-16T20:26:39.442Z,-0.20
2018-12-16T20:29:09.315Z,-0.20
2018-12-16T20:31:39.031Z,-0.20
2018-12-16T20:34:09.791Z,-0.20
2018-12-16T20:36:43.195Z,-0.20
2018-12-16T20:39:14.744Z,-0.20
2018-12-16T20:41:47.614Z,-0.20
2018-12-16T20:44:19.466Z,-0.20
2018-12-16T20:47:04.851Z,-0.20
2018-12-16T20:49:33.743Z,-0.20
2018-12-16T20:52:02.599Z,-0.20
2018-12-16T20:54:33.367Z,-0.20
2018-12-16T20:57:02.271Z,-0.20
2018-12-16T20:59:33.142Z,-0.10
2018-12-16T21:02:05.343Z,-0.10
2018-12-16T21:04:34.139Z,0.00
2018-12-16T21:07:03.019Z,0.00
2018-12-16T21:09:31.843Z,0.00
2018-12-16T21:12:04.543Z,0.00
2018-12-16T21:14:38.919Z,0.00
2018-12-16T21:17:20.239Z,0.00
2018-12-16T21:19:49.071Z,0.10
2018-12-16T21:22:28.281Z,0.10
2018-12-16T21:24:57.109Z,0.20
2018-12-16T21:27:26.326Z,0.20
2018-12-16T21:29:55.279Z,0.20
2018-12-16T21:32:24.995Z,0.20
2018-12-16T21:34:54.679Z,0.20
2018-12-16T21:37:24.443Z,0.20
2018-12-16T21:39:54.203Z,0.20
2018-12-16T21:42:22.987Z,0.30
2018-12-16T21:44:57.410Z,0.20
2018-12-16T21:47:28.159Z,0.30
2018-12-16T21:50:17.954Z,0.30
2018-12-16T21:52:53.211Z,0.40
2018-12-16T21:55:33.874Z,0.40
2018-12-16T21:58:03.686Z,0.50
2018-12-16T22:00:32.486Z,0.50
2018-12-16T22:03:01.291Z,0.60
2018-12-16T22:08:15.842Z,0.60
2018-12-16T22:10:55.219Z,0.70
2018-12-16T22:13:29.150Z,0.70
2018-12-16T22:15:58.859Z,0.80
2018-12-16T22:18:29.582Z,0.80
2018-12-16T22:21:05.039Z,0.80
2018-12-16T22:23:33.863Z,0.90
2018-12-16T22:26:12.423Z,0.90
2018-12-16T22:28:42.147Z,0.90
2018-12-16T22:31:11.883Z,0.90
2018-12-16T22:33:41.727Z,0.90
2018-12-16T22:36:17.114Z,0.90
2018-12-16T22:38:54.563Z,1.00
2018-12-16T22:41:23.379Z,1.00
2018-12-16T22:43:54.443Z,1.10
2018-12-16T22:46:27.495Z,1.00
2018-12-16T22:48:57.166Z,1.10
2018-12-16T22:51:25.959Z,1.00
2018-12-16T22:53:54.919Z,1.00
2018-12-16T22:56:25.671Z,1.00
2018-12-16T22:59:02.578Z,1.00
2018-12-16T23:01:32.427Z,1.00
2018-12-16T23:04:07.122Z,1.00
2018-12-16T23:06:35.930Z,1.00
2018-12-16T23:09:07.858Z,1.00
2018-12-16T23:11:41.418Z,1.00
2018-12-16T23:14:10.196Z,1.00
2018-12-16T23:16:42.762Z,1.00
2018-12-16T23:19:12.502Z,1.00
2018-12-16T23:21:41.295Z,1.00
2018-12-16T23:24:15.129Z,1.00
2018-12-16T23:26:52.634Z,1.00
2018-12-16T23:29:26.666Z,1.00
2018-12-16T23:31:55.478Z,1.00
2018-12-16T23:34:24.372Z,1.00
2018-12-16T23:36:53.198Z,1.00
2018-12-16T23:39:26.726Z,1.10
2018-12-16T23:41:56.438Z,1.00
2018-12-16T23:44:27.927Z,1.00
2018-12-16T23:47:00.999Z,1.00
2018-12-16T23:49:32.758Z,1.00
2018-12-16T23:52:05.640Z,1.00
2018-12-16T23:54:38.301Z,1.00
2018-12-16T23:57:14.518Z,1.00
2018-12-16T23:59:49.122Z,1.00
